createdAt,value
2017-03-06T00:00:37.500Z,6.65
2017-03-06T00:01:48.967Z,6.7
2017-03-06T00:03:00.597Z,6.65
2017-03-06T00:04:12.044Z,6.62
2017-03-06T00:05:23.495Z,6.6
2017-03-06T00:06:35.178Z,6.64
2017-03-06T00:07:46.640Z,6.65
2017-03-06T00:08:58.103Z,6.67
2017-03-06T00:10:09.750Z,6.75
2017-03-06T00:11:21.192Z,6.62
2017-03-06T00:12:32.696Z,6.72
2017-03-06T00:13:44.138Z,6.67
2017-03-06T00:14:55.778Z,6.62
2017-03-06T00:16:07.429Z,6.64
2017-03-06T00:17:18.861Z,6.58
2017-03-06T00:18:30.338Z,6.68
2017-03-06T00:19:41.768Z,6.55
2017-03-06T00:20:53.389Z,6.67
2017-03-06T00:22:04.821Z,6.64
2017-03-06T00:23:16.446Z,6.65
2017-03-06T00:24:27.946Z,6.62
2017-03-06T00:25:39.406Z,6.6
2017-03-06T00:26:50.841Z,6.61
2017-03-06T00:28:02.475Z,6.6
2017-03-06T00:29:13.931Z,6.58
2017-03-06T00:30:25.623Z,6.57
2017-03-06T00:31:37.075Z,6.6
2017-03-06T00:32:48.502Z,6.54
2017-03-06T00:33:59.939Z,6.68
2017-03-06T00:35:11.382Z,6.65
2017-03-06T00:36:23.074Z,6.55
2017-03-06T00:37:34.519Z,6.62
2017-03-06T00:38:45.954Z,6.62
2017-03-06T00:39:57.375Z,6.6
2017-03-06T00:41:08.800Z,6.6
2017-03-06T00:42:20.297Z,6.57
2017-03-06T00:43:31.729Z,6.52
2017-03-06T00:44:43.178Z,6.54
2017-03-06T00:45:54.639Z,6.54
2017-03-06T00:47:06.275Z,6.54
2017-03-06T00:48:17.767Z,6.52
2017-03-06T00:49:29.206Z,6.57
2017-03-06T00:50:40.847Z,6.58
2017-03-06T00:51:52.303Z,6.55
2017-03-06T00:53:03.766Z,6.61
2017-03-06T00:54:15.255Z,6.58
2017-03-06T00:55:26.691Z,6.67
2017-03-06T00:56:38.128Z,6.58
2017-03-06T00:57:49.562Z,6.58
2017-03-06T00:59:01.028Z,6.61
2017-03-06T01:00:12.518Z,6.61
2017-03-06T01:01:24.154Z,6.7
2017-03-06T01:02:35.591Z,6.57
2017-03-06T01:03:47.023Z,6.52
2017-03-06T01:04:58.441Z,6.6
2017-03-06T01:06:09.933Z,6.61
2017-03-06T01:07:21.360Z,6.62
2017-03-06T01:08:32.799Z,6.57
2017-03-06T01:09:44.233Z,6.58
2017-03-06T01:10:55.684Z,6.65
2017-03-06T01:12:07.175Z,6.61
2017-03-06T01:13:18.602Z,6.65
2017-03-06T01:14:30.227Z,6.64
2017-03-06T01:15:41.643Z,6.6
2017-03-06T01:16:53.096Z,6.64
2017-03-06T01:18:04.596Z,6.68
2017-03-06T01:19:16.016Z,6.55
2017-03-06T01:20:27.460Z,6.58
2017-03-06T01:21:39.123Z,6.55
2017-03-06T01:22:50.571Z,6.57
2017-03-06T01:24:02.056Z,6.52
2017-03-06T01:25:13.501Z,6.62
2017-03-06T01:26:24.940Z,6.64
2017-03-06T01:27:36.376Z,6.65
2017-03-06T01:28:47.819Z,6.61
2017-03-06T01:29:59.295Z,6.62
2017-03-06T01:31:10.725Z,6.62
2017-03-06T01:32:22.173Z,6.67
2017-03-06T01:33:33.598Z,6.62
2017-03-06T01:34:45.047Z,6.73
2017-03-06T01:35:56.537Z,6.61
2017-03-06T01:37:07.980Z,6.68
2017-03-06T01:38:19.607Z,6.72
2017-03-06T01:39:31.039Z,6.75
2017-03-06T01:40:42.668Z,6.75
2017-03-06T01:41:54.349Z,6.72
2017-03-06T01:43:05.820Z,6.72
2017-03-06T01:44:17.258Z,6.75
2017-03-06T01:45:28.680Z,6.75
2017-03-06T01:46:40.143Z,6.76
2017-03-06T01:47:51.637Z,6.79
2017-03-06T01:49:03.259Z,6.73
2017-03-06T01:50:14.710Z,6.75
2017-03-06T01:51:26.353Z,6.79
2017-03-06T01:52:37.789Z,6.75
2017-03-06T01:53:49.283Z,6.73
2017-03-06T01:55:00.924Z,6.76
2017-03-06T01:56:12.378Z,6.76
2017-03-06T01:57:24.001Z,6.8
2017-03-06T01:58:35.442Z,6.76
2017-03-06T01:59:46.930Z,6.83
2017-03-06T02:00:58.377Z,6.82
2017-03-06T02:02:09.799Z,6.78
2017-03-06T02:03:21.233Z,6.76
2017-03-06T02:04:32.685Z,6.9
2017-03-06T02:05:44.204Z,6.73
2017-03-06T02:06:55.613Z,6.82
2017-03-06T02:08:07.080Z,6.75
2017-03-06T02:09:18.524Z,6.75
2017-03-06T02:10:29.952Z,6.75
2017-03-06T02:11:41.642Z,6.79
2017-03-06T02:12:53.282Z,6.75
2017-03-06T02:14:04.904Z,6.75
2017-03-06T02:15:16.345Z,6.75
2017-03-06T02:16:27.780Z,6.75
2017-03-06T02:17:39.260Z,6.75
2017-03-06T02:18:50.699Z,6.65
2017-03-06T02:20:02.554Z,6.72
2017-03-06T02:21:13.992Z,6.76
2017-03-06T02:22:25.438Z,6.62
2017-03-06T02:23:37.132Z,6.64
2017-03-06T02:24:48.593Z,6.62
2017-03-06T02:26:00.223Z,6.72
2017-03-06T02:27:11.662Z,6.7
2017-03-06T02:28:23.105Z,6.62
2017-03-06T02:29:34.604Z,6.76
2017-03-06T02:30:46.059Z,6.75
2017-03-06T02:31:57.506Z,6.85
2017-03-06T02:33:08.943Z,6.79
2017-03-06T02:34:20.392Z,6.73
2017-03-06T02:35:31.889Z,6.82
2017-03-06T02:36:43.333Z,6.8
2017-03-06T02:37:54.974Z,6.75
2017-03-06T02:39:06.622Z,6.82
2017-03-06T02:40:18.060Z,6.83
2017-03-06T02:41:29.556Z,6.86
2017-03-06T02:42:41.185Z,6.85
2017-03-06T02:43:52.813Z,6.75
2017-03-06T02:45:04.268Z,6.73
2017-03-06T02:46:15.701Z,6.83
2017-03-06T02:47:27.211Z,6.7
2017-03-06T02:48:38.644Z,6.85
2017-03-06T02:49:50.503Z,6.79
2017-03-06T02:51:02.140Z,6.72
2017-03-06T02:52:13.577Z,6.73
2017-03-06T02:53:25.058Z,6.76
2017-03-06T02:54:36.675Z,6.76
2017-03-06T02:55:48.116Z,6.76
2017-03-06T02:56:59.546Z,6.64
2017-03-06T02:58:10.971Z,6.62
2017-03-06T02:59:22.455Z,6.67
2017-03-06T03:00:33.888Z,6.68
2017-03-06T03:01:45.331Z,6.61
2017-03-06T03:02:56.769Z,6.68
2017-03-06T03:04:08.196Z,6.64
2017-03-06T03:05:19.673Z,6.62
2017-03-06T03:06:31.098Z,6.64
2017-03-06T03:07:42.525Z,6.6
2017-03-06T03:08:53.954Z,6.67
2017-03-06T03:10:05.398Z,6.67
2017-03-06T03:11:17.086Z,6.6
2017-03-06T03:12:28.528Z,6.73
2017-03-06T03:13:39.954Z,6.68
2017-03-06T03:14:51.373Z,6.72
2017-03-06T03:16:03.011Z,6.76
2017-03-06T03:17:14.688Z,6.76
2017-03-06T03:18:26.141Z,6.62
2017-03-06T03:19:37.563Z,6.64
2017-03-06T03:20:48.997Z,6.65
2017-03-06T03:22:00.440Z,6.75
2017-03-06T03:23:11.922Z,6.73
2017-03-06T03:24:23.379Z,6.73
2017-03-06T03:25:34.994Z,6.65
2017-03-06T03:26:46.427Z,6.62
2017-03-06T03:27:58.071Z,6.73
2017-03-06T03:29:09.553Z,6.62
2017-03-06T03:30:20.987Z,6.62
2017-03-06T03:31:32.409Z,6.72
2017-03-06T03:32:43.841Z,6.6
2017-03-06T03:33:55.263Z,6.65
2017-03-06T03:35:06.939Z,6.67
2017-03-06T03:36:18.568Z,6.7
2017-03-06T03:37:30.016Z,6.62
2017-03-06T03:38:41.459Z,6.65
2017-03-06T03:39:52.920Z,6.58
2017-03-06T03:41:04.402Z,6.57
2017-03-06T03:42:16.064Z,6.6
2017-03-06T03:43:27.486Z,6.58
2017-03-06T03:44:39.151Z,6.57
2017-03-06T03:45:50.983Z,6.64
2017-03-06T03:47:02.465Z,6.57
2017-03-06T03:48:13.936Z,6.55
2017-03-06T03:49:25.374Z,6.58
2017-03-06T03:50:36.846Z,6.6
2017-03-06T03:51:48.493Z,6.61
2017-03-06T03:52:59.978Z,6.55
2017-03-06T03:54:11.614Z,6.51
2017-03-06T03:55:23.035Z,6.52
2017-03-06T03:56:34.486Z,6.61
2017-03-06T03:57:45.930Z,6.6
2017-03-06T03:58:57.429Z,6.61
2017-03-06T04:00:08.858Z,6.55
2017-03-06T04:01:20.287Z,6.58
2017-03-06T04:02:31.724Z,6.58
2017-03-06T04:03:43.185Z,6.57
2017-03-06T04:04:54.869Z,6.55
2017-03-06T04:06:06.317Z,6.46
2017-03-06T04:07:17.741Z,6.51
2017-03-06T04:08:29.379Z,6.49
2017-03-06T04:09:40.817Z,6.46
2017-03-06T04:10:52.497Z,6.58
2017-03-06T04:12:03.966Z,6.58
2017-03-06T04:13:15.383Z,6.61
2017-03-06T04:14:26.823Z,6.51
2017-03-06T04:15:38.251Z,6.58
2017-03-06T04:16:49.753Z,6.52
2017-03-06T04:18:01.398Z,6.52
2017-03-06T04:19:12.821Z,6.55
2017-03-06T04:20:24.284Z,6.43
2017-03-06T04:21:35.901Z,6.58
2017-03-06T04:22:47.392Z,6.55
2017-03-06T04:23:58.826Z,6.54
2017-03-06T04:25:10.269Z,6.55
2017-03-06T04:26:21.722Z,6.55
2017-03-06T04:27:33.370Z,6.55
2017-03-06T04:28:44.865Z,6.58
2017-03-06T04:29:56.294Z,6.54
2017-03-06T04:31:07.720Z,6.55
2017-03-06T04:32:19.150Z,6.68
2017-03-06T04:33:30.606Z,6.64
2017-03-06T04:34:42.092Z,6.64
2017-03-06T04:35:53.506Z,6.65
2017-03-06T04:37:05.145Z,6.67
2017-03-06T04:38:16.988Z,6.62
2017-03-06T04:39:28.429Z,6.67
2017-03-06T04:40:39.916Z,6.61
2017-03-06T04:41:51.374Z,6.62
2017-03-06T04:43:02.796Z,6.64
2017-03-06T04:44:14.225Z,6.64
2017-03-06T04:45:25.851Z,6.67
2017-03-06T04:46:37.341Z,6.64
2017-03-06T04:47:48.992Z,6.6
2017-03-06T04:49:00.431Z,6.61
2017-03-06T04:50:11.863Z,6.67
2017-03-06T04:51:23.281Z,6.68
2017-03-06T04:52:34.756Z,6.55
2017-03-06T04:53:46.195Z,6.61
2017-03-06T04:54:57.642Z,6.65
2017-03-06T04:56:09.096Z,6.72
2017-03-06T04:57:20.527Z,6.62
2017-03-06T04:58:32.003Z,6.51
2017-03-06T04:59:43.446Z,6.61
2017-03-06T05:00:54.875Z,6.58
2017-03-06T05:02:06.309Z,6.54
2017-03-06T05:03:17.764Z,6.62
2017-03-06T05:04:29.228Z,6.55
2017-03-06T05:05:40.661Z,6.65
2017-03-06T05:06:52.094Z,6.7
2017-03-06T05:08:03.526Z,6.67
2017-03-06T05:09:15.162Z,6.68
2017-03-06T05:10:26.643Z,6.64
2017-03-06T05:11:38.081Z,6.62
2017-03-06T05:12:49.509Z,6.61
2017-03-06T05:14:00.939Z,6.61
2017-03-06T05:15:12.373Z,6.6
2017-03-06T05:16:23.884Z,6.55
2017-03-06T05:17:35.313Z,6.55
2017-03-06T05:18:46.742Z,6.62
2017-03-06T05:19:58.166Z,6.65
2017-03-06T05:21:09.616Z,6.54
2017-03-06T05:22:21.125Z,6.55
2017-03-06T05:23:32.747Z,6.54
2017-03-06T05:24:44.189Z,6.55
2017-03-06T05:25:55.613Z,6.57
2017-03-06T05:27:07.059Z,6.55
2017-03-06T05:28:18.535Z,6.52
2017-03-06T05:29:29.976Z,6.47
2017-03-06T05:30:41.423Z,6.52
2017-03-06T05:31:52.855Z,6.57
2017-03-06T05:33:04.296Z,6.52
2017-03-06T05:34:15.792Z,6.55
2017-03-06T05:35:27.427Z,6.57
2017-03-06T05:36:38.861Z,6.47
2017-03-06T05:37:50.692Z,6.52
2017-03-06T05:39:02.331Z,6.46
2017-03-06T05:40:13.822Z,6.49
2017-03-06T05:41:25.263Z,6.51
2017-03-06T05:42:36.682Z,6.52
2017-03-06T05:43:48.130Z,6.52
2017-03-06T05:44:59.555Z,6.42
2017-03-06T05:46:11.022Z,6.4
2017-03-06T05:47:22.653Z,6.37
2017-03-06T05:48:34.094Z,6.42
2017-03-06T05:49:45.534Z,6.39
2017-03-06T05:50:56.972Z,6.36
2017-03-06T05:52:08.443Z,6.44
2017-03-06T05:53:19.908Z,6.36
2017-03-06T05:54:31.329Z,6.34
2017-03-06T05:55:42.779Z,6.34
2017-03-06T05:56:54.422Z,6.36
2017-03-06T05:58:06.320Z,6.43
2017-03-06T05:59:17.783Z,6.39
2017-03-06T06:00:29.214Z,6.36
2017-03-06T06:01:40.667Z,6.29
2017-03-06T06:02:52.154Z,6.29
2017-03-06T06:04:03.848Z,6.36
2017-03-06T06:05:15.482Z,6.2
2017-03-06T06:06:26.916Z,6.24
2017-03-06T06:07:38.364Z,6.17
2017-03-06T06:08:49.818Z,6.18
2017-03-06T06:10:01.305Z,6.15
2017-03-06T06:11:12.750Z,6.13
2017-03-06T06:12:24.198Z,6.14
2017-03-06T06:13:35.639Z,6.07
2017-03-06T06:14:47.086Z,6.09
2017-03-06T06:15:58.609Z,6.17
2017-03-06T06:17:10.038Z,6.13
2017-03-06T06:18:21.475Z,6.17
2017-03-06T06:19:32.925Z,6.14
2017-03-06T06:20:44.413Z,6.13
2017-03-06T06:21:55.926Z,6.13
2017-03-06T06:23:07.561Z,6.14
2017-03-06T06:24:19.004Z,6.14
2017-03-06T06:25:30.440Z,6.14
2017-03-06T06:26:41.911Z,6.15
2017-03-06T06:27:53.417Z,6.07
2017-03-06T06:29:04.884Z,6.13
2017-03-06T06:30:16.331Z,6.13
2017-03-06T06:31:27.778Z,6.17
2017-03-06T06:32:39.218Z,6.15
2017-03-06T06:33:50.701Z,6.15
2017-03-06T06:35:02.118Z,6.2
2017-03-06T06:36:13.559Z,6.24
2017-03-06T06:37:24.999Z,6.21
2017-03-06T06:38:36.620Z,6.17
2017-03-06T06:39:48.111Z,6.15
2017-03-06T06:40:59.564Z,6.25
2017-03-06T06:42:10.998Z,6.2
2017-03-06T06:43:22.422Z,6.28
2017-03-06T06:44:33.889Z,6.33
2017-03-06T06:45:45.373Z,6.28
2017-03-06T06:46:56.818Z,6.26
2017-03-06T06:48:08.269Z,6.33
2017-03-06T06:49:19.696Z,6.33
2017-03-06T06:50:31.133Z,6.34
2017-03-06T06:51:42.650Z,6.33
2017-03-06T06:52:54.106Z,6.28
2017-03-06T06:54:05.542Z,6.28
2017-03-06T06:55:17.167Z,6.33
2017-03-06T06:56:28.590Z,6.29
2017-03-06T06:57:40.277Z,6.31
2017-03-06T06:58:51.726Z,6.36
2017-03-06T07:00:03.157Z,6.36
2017-03-06T07:01:14.784Z,6.34
2017-03-06T07:02:26.216Z,6.36
2017-03-06T07:03:37.717Z,6.37
2017-03-06T07:04:49.370Z,6.4
2017-03-06T07:06:00.833Z,6.36
2017-03-06T07:07:12.257Z,6.37
2017-03-06T07:08:23.887Z,6.4
2017-03-06T07:09:35.388Z,6.42
2017-03-06T07:10:46.828Z,6.33
2017-03-06T07:11:58.268Z,6.37
2017-03-06T07:13:09.692Z,6.29
2017-03-06T07:14:21.139Z,6.33
2017-03-06T07:15:32.611Z,6.34
2017-03-06T07:16:44.038Z,6.37
2017-03-06T07:17:55.469Z,6.26
2017-03-06T07:19:07.110Z,6.25
2017-03-06T07:20:18.541Z,6.2
2017-03-06T07:21:30.233Z,6.18
2017-03-06T07:22:41.669Z,6.24
2017-03-06T07:23:53.120Z,6.28
2017-03-06T07:25:04.576Z,6.29
2017-03-06T07:26:16.207Z,6.26
2017-03-06T07:27:27.723Z,6.25
2017-03-06T07:28:39.156Z,6.2
2017-03-06T07:29:50.609Z,6.25
2017-03-06T07:31:02.067Z,6.21
2017-03-06T07:32:13.488Z,6.17
2017-03-06T07:33:24.981Z,6.17
2017-03-06T07:34:36.444Z,6.17
2017-03-06T07:35:47.930Z,6.09
2017-03-06T07:36:59.573Z,6.02
2017-03-06T07:38:11.012Z,5.99
2017-03-06T07:39:22.524Z,6
2017-03-06T07:40:33.955Z,5.95
2017-03-06T07:41:45.398Z,5.95
2017-03-06T07:42:57.048Z,5.98
2017-03-06T07:44:08.679Z,5.95
2017-03-06T07:45:20.172Z,5.98
2017-03-06T07:46:31.619Z,5.92
2017-03-06T07:47:43.249Z,5.96
2017-03-06T07:48:54.669Z,5.95
2017-03-06T07:50:06.118Z,5.98
2017-03-06T07:51:17.607Z,5.87
2017-03-06T07:52:29.046Z,5.88
2017-03-06T07:53:40.485Z,5.92
2017-03-06T07:54:51.907Z,6
2017-03-06T07:56:03.374Z,5.98
2017-03-06T07:57:14.852Z,6
2017-03-06T07:58:26.302Z,5.99
2017-03-06T07:59:37.741Z,5.99
2017-03-06T08:00:49.174Z,5.89
2017-03-06T08:02:00.629Z,6.07
2017-03-06T08:03:12.134Z,6.1
2017-03-06T08:04:23.590Z,6.1
2017-03-06T08:05:35.029Z,6.17
2017-03-06T08:06:46.477Z,6.07
2017-03-06T08:07:58.120Z,6.24
2017-03-06T08:09:09.593Z,6.21
2017-03-06T08:10:21.030Z,6.25
2017-03-06T08:11:32.491Z,6.26
2017-03-06T08:12:43.916Z,6.24
2017-03-06T08:13:55.566Z,6.24
2017-03-06T08:15:07.055Z,6.21
2017-03-06T08:16:18.510Z,6.24
2017-03-06T08:17:29.959Z,6.25
2017-03-06T08:18:41.421Z,6.42
2017-03-06T08:19:52.852Z,6.31
2017-03-06T08:21:04.544Z,6.44
2017-03-06T08:22:15.990Z,6.43
2017-03-06T08:23:27.455Z,6.4
2017-03-06T08:24:38.902Z,6.39
2017-03-06T08:25:50.331Z,6.43
2017-03-06T08:27:01.835Z,6.4
2017-03-06T08:28:13.267Z,6.46
2017-03-06T08:29:24.705Z,6.49
2017-03-06T08:30:36.176Z,6.47
2017-03-06T08:31:47.811Z,6.57
2017-03-06T08:32:59.323Z,6.61
2017-03-06T08:34:10.749Z,6.73
2017-03-06T08:35:22.199Z,7.01
2017-03-06T08:36:33.660Z,7.58
2017-03-06T08:37:45.104Z,8.21
2017-03-06T08:38:56.604Z,8.34
2017-03-06T08:40:08.243Z,8.35
2017-03-06T08:41:19.673Z,8.21
2017-03-06T08:42:31.100Z,8.1
2017-03-06T08:43:42.569Z,7.98
2017-03-06T08:44:54.053Z,7.82
2017-03-06T08:46:05.487Z,7.78
2017-03-06T08:47:16.917Z,7.78
2017-03-06T08:48:28.339Z,7.83
2017-03-06T08:49:39.805Z,7.78
2017-03-06T08:50:51.480Z,7.74
2017-03-06T08:52:02.946Z,7.82
2017-03-06T08:53:14.419Z,7.78
2017-03-06T08:54:26.088Z,7.75
2017-03-06T08:55:37.537Z,7.77
2017-03-06T08:56:49.213Z,7.74
2017-03-06T08:58:00.644Z,7.75
2017-03-06T08:59:12.096Z,7.75
2017-03-06T09:00:23.531Z,7.82
2017-03-06T09:01:34.967Z,7.74
2017-03-06T09:02:46.479Z,7.73
2017-03-06T09:03:57.917Z,7.77
2017-03-06T09:05:09.355Z,7.85
2017-03-06T09:06:20.785Z,7.86
2017-03-06T09:07:32.240Z,7.91
2017-03-06T09:08:43.729Z,8.01
2017-03-06T09:09:55.191Z,7.98
2017-03-06T09:11:06.636Z,8.04
2017-03-06T09:12:18.085Z,8.01
2017-03-06T09:13:29.510Z,8.07
2017-03-06T09:14:40.989Z,8.11
2017-03-06T09:15:52.624Z,8.09
2017-03-06T09:17:04.053Z,8.16
2017-03-06T09:18:15.501Z,8.14
2017-03-06T09:19:26.956Z,8.24
2017-03-06T09:20:38.473Z,8.24
2017-03-06T09:21:49.924Z,8.32
2017-03-06T09:23:01.414Z,8.31
2017-03-06T09:24:12.857Z,8.25
2017-03-06T09:25:24.294Z,8.16
2017-03-06T09:26:35.788Z,8.19
2017-03-06T09:27:47.230Z,8.09
2017-03-06T09:28:58.705Z,8.09
2017-03-06T09:30:10.141Z,8.1
2017-03-06T09:31:21.791Z,8.19
2017-03-06T09:32:33.282Z,8.17
2017-03-06T09:33:44.712Z,8.1
2017-03-06T09:34:56.178Z,8.14
2017-03-06T09:36:07.615Z,8.07
2017-03-06T09:37:19.048Z,8.06
2017-03-06T09:38:30.528Z,8.07
2017-03-06T09:39:41.953Z,8.16
2017-03-06T09:40:53.396Z,8.24
2017-03-06T09:42:04.854Z,8.22
2017-03-06T09:43:16.317Z,8.19
2017-03-06T09:44:27.828Z,8.24
2017-03-06T09:45:39.251Z,8.13
2017-03-06T09:46:50.892Z,8.14
2017-03-06T09:48:02.352Z,8.25
2017-03-06T09:49:13.997Z,8.26
2017-03-06T09:50:25.475Z,8.34
2017-03-06T09:51:36.927Z,8.47
2017-03-06T09:52:48.364Z,8.6
2017-03-06T09:53:59.815Z,8.72
2017-03-06T09:55:11.247Z,8.87
2017-03-06T09:56:22.753Z,8.94
2017-03-06T09:57:34.395Z,9.01
2017-03-06T09:58:45.843Z,9.12
2017-03-06T09:59:57.272Z,9.11
2017-03-06T10:01:08.722Z,9.08
2017-03-06T10:02:20.225Z,8.95
2017-03-06T10:03:31.687Z,8.97
2017-03-06T10:04:43.134Z,8.89
2017-03-06T10:05:54.568Z,8.95
2017-03-06T10:07:06.004Z,8.86
2017-03-06T10:08:17.683Z,8.77
2017-03-06T10:09:29.156Z,8.74
2017-03-06T10:10:40.602Z,8.69
2017-03-06T10:11:52.080Z,8.62
2017-03-06T10:13:03.540Z,8.65
2017-03-06T10:14:15.041Z,8.42
2017-03-06T10:15:26.484Z,8.47
2017-03-06T10:16:38.134Z,8.44
2017-03-06T10:17:49.613Z,8.36
2017-03-06T10:19:01.050Z,8.35
2017-03-06T10:20:12.535Z,8.31
2017-03-06T10:21:24.181Z,8.36
2017-03-06T10:22:35.607Z,8.32
2017-03-06T10:23:47.061Z,8.35
2017-03-06T10:24:58.514Z,8.42
2017-03-06T10:26:10.008Z,8.4
2017-03-06T10:27:21.662Z,8.47
2017-03-06T10:28:33.293Z,8.43
2017-03-06T10:29:44.739Z,8.43
2017-03-06T10:30:56.171Z,8.39
2017-03-06T10:32:07.664Z,8.42
2017-03-06T10:33:19.092Z,8.47
2017-03-06T10:34:30.770Z,8.43
2017-03-06T10:35:42.194Z,8.39
2017-03-06T10:36:53.839Z,8.54
2017-03-06T10:38:05.534Z,8.57
2017-03-06T10:39:16.967Z,8.61
2017-03-06T10:40:28.394Z,8.57
2017-03-06T10:41:39.826Z,8.53
2017-03-06T10:42:51.266Z,8.61
2017-03-06T10:44:02.764Z,8.49
2017-03-06T10:45:14.193Z,8.46
2017-03-06T10:46:25.839Z,8.42
2017-03-06T10:47:37.295Z,8.44
2017-03-06T10:48:48.941Z,8.43
2017-03-06T10:50:00.426Z,8.36
2017-03-06T10:51:11.903Z,8.36
2017-03-06T10:52:23.346Z,8.44
2017-03-06T10:53:34.779Z,8.43
2017-03-06T10:54:46.233Z,8.47
2017-03-06T10:55:57.715Z,8.47
2017-03-06T10:57:09.154Z,8.49
2017-03-06T10:58:20.602Z,8.54
2017-03-06T10:59:32.035Z,8.44
2017-03-06T11:00:43.492Z,8.44
2017-03-06T11:01:54.958Z,8.57
2017-03-06T11:03:06.389Z,8.5
2017-03-06T11:04:18.235Z,8.52
2017-03-06T11:05:29.668Z,8.43
2017-03-06T11:06:41.123Z,8.46
2017-03-06T11:07:52.634Z,8.58
2017-03-06T11:09:04.101Z,8.46
2017-03-06T11:10:15.543Z,8.43
2017-03-06T11:11:27.200Z,8.35
2017-03-06T11:12:38.631Z,8.31
2017-03-06T11:13:50.167Z,8.19
2017-03-06T11:15:01.609Z,8.21
2017-03-06T11:16:13.054Z,8.13
2017-03-06T11:17:24.689Z,8.13
2017-03-06T11:18:36.133Z,8.11
2017-03-06T11:19:47.631Z,8.07
2017-03-06T11:20:59.076Z,8.1
2017-03-06T11:22:10.533Z,8.03
2017-03-06T11:23:21.985Z,7.95
2017-03-06T11:24:33.426Z,7.99
2017-03-06T11:25:44.853Z,7.92
2017-03-06T11:26:56.315Z,7.95
2017-03-06T11:28:07.757Z,8.03
2017-03-06T11:29:19.192Z,8.11
2017-03-06T11:30:30.681Z,8.14
2017-03-06T11:31:42.114Z,8.21
2017-03-06T11:32:53.554Z,8.21
2017-03-06T11:34:04.992Z,8.24
2017-03-06T11:35:16.627Z,8.26
2017-03-06T11:36:28.063Z,8.21
2017-03-06T11:37:39.499Z,8.25
2017-03-06T11:38:50.918Z,8.36
2017-03-06T11:40:02.353Z,8.29
2017-03-06T11:41:13.863Z,8.46
2017-03-06T11:42:25.494Z,8.43
2017-03-06T11:43:37.153Z,8.4
2017-03-06T11:44:48.605Z,8.53
2017-03-06T11:46:00.241Z,8.49
2017-03-06T11:47:11.880Z,8.32
2017-03-06T11:48:23.302Z,8.4
2017-03-06T11:49:34.944Z,8.5
2017-03-06T11:50:46.585Z,8.42
2017-03-06T11:51:58.245Z,8.44
2017-03-06T11:53:09.751Z,8.42
2017-03-06T11:54:21.182Z,8.29
2017-03-06T11:55:32.622Z,8.32
2017-03-06T11:56:44.072Z,8.29
2017-03-06T11:57:55.761Z,8.32
2017-03-06T11:59:07.209Z,8.32
2017-03-06T12:00:18.647Z,8.26
2017-03-06T12:01:30.285Z,8.22
2017-03-06T12:02:41.743Z,8.21
2017-03-06T12:03:53.186Z,8.26
2017-03-06T12:05:04.819Z,8.24
2017-03-06T12:06:16.257Z,8.24
2017-03-06T12:07:27.898Z,8.32
2017-03-06T12:08:39.381Z,8.29
2017-03-06T12:09:50.821Z,8.31
2017-03-06T12:11:02.264Z,8.39
2017-03-06T12:12:13.711Z,8.32
2017-03-06T12:13:25.160Z,8.34
2017-03-06T12:14:36.598Z,8.26
2017-03-06T12:15:48.062Z,8.21
2017-03-06T12:16:59.917Z,8.25
2017-03-06T12:18:11.359Z,8.21
2017-03-06T12:19:22.838Z,8.11
2017-03-06T12:20:34.267Z,8.19
2017-03-06T12:21:45.923Z,8.03
2017-03-06T12:22:57.369Z,8.04
2017-03-06T12:24:08.827Z,8.01
2017-03-06T12:25:20.481Z,8.03
2017-03-06T12:26:31.916Z,7.91
2017-03-06T12:27:43.548Z,7.88
2017-03-06T12:28:55.177Z,7.95
2017-03-06T12:30:06.665Z,7.99
2017-03-06T12:31:18.127Z,8.04
2017-03-06T12:32:29.586Z,8.09
2017-03-06T12:33:41.236Z,8.14
2017-03-06T12:34:52.658Z,8.14
2017-03-06T12:36:04.104Z,8.14
2017-03-06T12:37:15.530Z,8.21
2017-03-06T12:38:26.963Z,8.22
2017-03-06T12:39:38.618Z,8.22
2017-03-06T12:40:50.106Z,8.25
2017-03-06T12:42:01.544Z,8.28
2017-03-06T12:43:13.176Z,8.29
2017-03-06T12:44:24.609Z,8.32
2017-03-06T12:45:36.240Z,8.26
2017-03-06T12:46:47.685Z,8.28
2017-03-06T12:47:59.114Z,8.31
2017-03-06T12:49:10.555Z,8.36
2017-03-06T12:50:22.023Z,8.31
2017-03-06T12:51:33.523Z,8.36
2017-03-06T12:52:44.952Z,8.4
2017-03-06T12:53:56.423Z,8.44
2017-03-06T12:55:07.870Z,8.39
2017-03-06T12:56:19.311Z,8.53
2017-03-06T12:57:30.756Z,8.52
2017-03-06T12:58:42.194Z,8.68
2017-03-06T12:59:53.829Z,8.8
2017-03-06T13:01:05.291Z,8.85
2017-03-06T13:02:16.939Z,8.89
2017-03-06T13:03:28.421Z,8.97
2017-03-06T13:04:39.859Z,8.98
2017-03-06T13:05:51.513Z,9.04
2017-03-06T13:07:03.171Z,9.08
2017-03-06T13:08:14.811Z,9.11
2017-03-06T13:09:26.266Z,9.05
2017-03-06T13:10:37.717Z,9.03
2017-03-06T13:11:49.154Z,9.04
2017-03-06T13:13:00.636Z,9.08
2017-03-06T13:14:12.087Z,9.04
2017-03-06T13:15:23.709Z,9.04
2017-03-06T13:16:35.358Z,9.01
2017-03-06T13:17:46.796Z,8.92
2017-03-06T13:18:58.437Z,8.87
2017-03-06T13:20:10.073Z,8.82
2017-03-06T13:21:21.521Z,8.83
2017-03-06T13:22:33.190Z,8.77
2017-03-06T13:23:44.693Z,8.83
2017-03-06T13:24:56.129Z,8.71
2017-03-06T13:26:07.583Z,8.69
2017-03-06T13:27:19.006Z,8.74
2017-03-06T13:28:30.462Z,8.74
2017-03-06T13:29:41.902Z,8.72
2017-03-06T13:30:53.357Z,8.79
2017-03-06T13:32:04.839Z,8.72
2017-03-06T13:33:16.264Z,8.76
2017-03-06T13:34:27.915Z,8.79
2017-03-06T13:35:39.420Z,8.76
2017-03-06T13:36:50.865Z,8.67
2017-03-06T13:38:02.513Z,8.69
2017-03-06T13:39:13.958Z,8.71
2017-03-06T13:40:25.395Z,8.64
2017-03-06T13:41:36.831Z,8.69
2017-03-06T13:42:48.316Z,8.65
2017-03-06T13:43:59.761Z,8.61
2017-03-06T13:45:11.252Z,8.62
2017-03-06T13:46:22.701Z,8.65
2017-03-06T13:47:34.140Z,8.67
2017-03-06T13:48:45.617Z,8.65
2017-03-06T13:49:57.085Z,8.71
2017-03-06T13:51:08.524Z,8.67
2017-03-06T13:52:19.969Z,8.77
2017-03-06T13:53:31.420Z,8.79
2017-03-06T13:54:42.890Z,8.9
2017-03-06T13:55:54.395Z,8.95
2017-03-06T13:57:05.852Z,9
2017-03-06T13:58:17.302Z,9.03
2017-03-06T13:59:28.741Z,9.01
2017-03-06T14:00:40.187Z,9.12
2017-03-06T14:01:51.687Z,9.21
2017-03-06T14:03:03.148Z,9.2
2017-03-06T14:04:14.631Z,9.11
2017-03-06T14:05:26.092Z,9.2
2017-03-06T14:06:37.539Z,9.23
2017-03-06T14:07:48.978Z,9.23
2017-03-06T14:09:00.429Z,9.23
2017-03-06T14:10:11.882Z,9.24
2017-03-06T14:11:23.528Z,9.2
2017-03-06T14:12:35.012Z,9.12
2017-03-06T14:13:46.661Z,9.11
2017-03-06T14:14:58.084Z,9.16
2017-03-06T14:16:09.539Z,9.12
2017-03-06T14:17:20.990Z,9.17
2017-03-06T14:18:32.651Z,9.17
2017-03-06T14:19:44.103Z,9.12
2017-03-06T14:20:55.528Z,8.95
2017-03-06T14:22:07.006Z,9.01
2017-03-06T14:23:18.682Z,8.97
2017-03-06T14:24:30.107Z,8.94
2017-03-06T14:25:41.560Z,8.95
2017-03-06T14:26:53.204Z,8.87
2017-03-06T14:28:04.637Z,8.87
2017-03-06T14:29:16.465Z,8.86
2017-03-06T14:30:28.104Z,8.79
2017-03-06T14:31:39.570Z,8.8
2017-03-06T14:32:51.024Z,8.76
2017-03-06T14:34:02.528Z,8.74
2017-03-06T14:35:13.968Z,8.64
2017-03-06T14:36:25.603Z,8.61
2017-03-06T14:37:37.036Z,8.65
2017-03-06T14:38:48.477Z,8.65
2017-03-06T14:40:00.123Z,8.69
2017-03-06T14:41:11.759Z,8.65
2017-03-06T14:42:23.205Z,8.65
2017-03-06T14:43:34.655Z,8.6
2017-03-06T14:44:46.113Z,8.58
2017-03-06T14:45:57.605Z,8.62
2017-03-06T14:47:09.018Z,8.5
2017-03-06T14:48:20.458Z,8.53
2017-03-06T14:49:31.905Z,8.43
2017-03-06T14:50:43.339Z,8.44
2017-03-06T14:51:54.970Z,8.32
2017-03-06T14:53:06.624Z,8.31
2017-03-06T14:54:18.076Z,8.35
2017-03-06T14:55:29.575Z,8.25
2017-03-06T14:56:41.011Z,8.24
2017-03-06T14:57:52.448Z,8.22
2017-03-06T14:59:03.884Z,8.21
2017-03-06T15:00:15.309Z,8.16
2017-03-06T15:01:26.733Z,8.21
2017-03-06T15:02:38.209Z,8.1
2017-03-06T15:03:49.631Z,8.17
2017-03-06T15:05:01.064Z,8.21
2017-03-06T15:06:12.567Z,8.14
2017-03-06T15:07:24.036Z,8.1
2017-03-06T15:08:35.471Z,8.11
2017-03-06T15:09:46.911Z,8.11
2017-03-06T15:10:58.358Z,8.21
2017-03-06T15:12:09.833Z,8.14
2017-03-06T15:13:21.285Z,8.1
2017-03-06T15:14:32.744Z,8.14
2017-03-06T15:15:44.182Z,8.14
2017-03-06T15:16:55.611Z,8.11
2017-03-06T15:18:07.089Z,8.14
2017-03-06T15:19:18.734Z,8.14
2017-03-06T15:20:30.384Z,8.13
2017-03-06T15:21:41.860Z,8.06
2017-03-06T15:22:53.293Z,8.11
2017-03-06T15:24:04.746Z,8.07
2017-03-06T15:25:16.195Z,8.04
2017-03-06T15:26:27.624Z,8.17
2017-03-06T15:27:39.105Z,8.07
2017-03-06T15:28:50.536Z,8.1
2017-03-06T15:30:02.174Z,8.11
2017-03-06T15:31:13.628Z,8.1
2017-03-06T15:32:25.080Z,8.19
2017-03-06T15:33:36.521Z,8.14
2017-03-06T15:34:47.952Z,8.16
2017-03-06T15:35:59.404Z,8.19
2017-03-06T15:37:10.849Z,8.14
2017-03-06T15:38:22.361Z,8.09
2017-03-06T15:39:33.786Z,8.06
2017-03-06T15:40:45.253Z,7.93
2017-03-06T15:41:56.683Z,7.98
2017-03-06T15:43:08.119Z,7.92
2017-03-06T15:44:19.597Z,7.88
2017-03-06T15:45:31.048Z,7.89
2017-03-06T15:46:42.480Z,7.86
2017-03-06T15:47:53.908Z,7.74
2017-03-06T15:49:05.341Z,7.73
2017-03-06T15:50:17.861Z,7.71
2017-03-06T15:51:32.594Z,7.71
2017-03-06T15:52:46.550Z,7.68
2017-03-06T15:55:26.233Z,7.82